createdAt,value
2019-02-03T00:00:32.839Z,3.14
2019-02-03T00:01:33.478Z,3.14
2019-02-03T00:02:32.698Z,3.12
2019-02-03T00:03:32.933Z,3.12
2019-02-03T00:04:32.895Z,3.09
2019-02-03T00:05:32.677Z,3.1
2019-02-03T00:06:33.559Z,3.11
2019-02-03T00:07:32.967Z,3.07
2019-02-03T00:08:32.671Z,3.04
2019-02-03T00:09:32.545Z,3.05
2019-02-03T00:10:32.572Z,3.05
2019-02-03T00:11:32.737Z,3.02
2019-02-03T00:12:32.983Z,3.08
2019-02-03T00:13:32.810Z,3.07
2019-02-03T00:14:32.715Z,3.01
2019-02-03T00:15:32.567Z,3
2019-02-03T00:16:32.574Z,2.98
2019-02-03T00:17:32.525Z,2.94
2019-02-03T00:18:34.886Z,2.96
2019-02-03T00:19:32.931Z,2.93
2019-02-03T00:20:32.777Z,2.9
2019-02-03T00:21:32.579Z,2.92
2019-02-03T00:22:32.526Z,2.95
2019-02-03T00:23:34.078Z,2.92
2019-02-03T00:24:32.530Z,2.92
2019-02-03T00:25:32.621Z,2.86
2019-02-03T00:26:32.567Z,2.86
2019-02-03T00:27:32.575Z,2.87
2019-02-03T00:28:32.527Z,2.87
2019-02-03T00:29:32.657Z,2.89
2019-02-03T00:30:33.232Z,2.88
2019-02-03T00:31:34.341Z,2.88
2019-02-03T00:32:32.541Z,2.87
2019-02-03T00:33:32.678Z,2.85
2019-02-03T00:34:32.680Z,2.82
2019-02-03T00:35:33.519Z,2.84
2019-02-03T00:36:32.485Z,2.81
2019-02-03T00:37:32.894Z,2.82
2019-02-03T00:38:32.726Z,2.85
2019-02-03T00:39:33.874Z,2.83
2019-02-03T00:40:33.020Z,2.84
2019-02-03T00:41:33.112Z,2.79
2019-02-03T00:42:32.577Z,2.78
2019-02-03T00:43:32.630Z,2.8
2019-02-03T00:44:32.611Z,2.79
2019-02-03T00:45:32.920Z,2.78
2019-02-03T00:46:32.999Z,2.79
2019-02-03T00:47:32.648Z,2.79
2019-02-03T00:48:32.826Z,2.81
2019-02-03T00:49:32.509Z,2.76
2019-02-03T00:50:32.771Z,2.79
2019-02-03T00:51:32.565Z,2.77
2019-02-03T00:52:32.651Z,2.76
2019-02-03T00:53:32.491Z,2.72
2019-02-03T00:54:32.771Z,2.74
2019-02-03T00:55:32.887Z,2.71
2019-02-03T00:56:32.710Z,2.69
2019-02-03T00:57:32.744Z,2.73
2019-02-03T00:58:33.313Z,2.69
2019-02-03T00:59:32.449Z,2.65
2019-02-03T01:00:32.842Z,2.69
2019-02-03T01:01:32.751Z,2.66
2019-02-03T01:02:32.937Z,2.57
2019-02-03T01:03:34.283Z,2.58
2019-02-03T01:04:33.953Z,2.59
2019-02-03T01:05:32.602Z,2.59
2019-02-03T01:06:32.598Z,2.61
2019-02-03T01:07:32.435Z,2.59
2019-02-03T01:08:32.446Z,2.56
2019-02-03T01:09:34.200Z,2.59
2019-02-03T01:10:32.633Z,2.56
2019-02-03T01:11:32.486Z,2.5
2019-02-03T01:12:33.853Z,2.49
2019-02-03T01:13:32.908Z,2.5
2019-02-03T01:14:32.415Z,2.48
2019-02-03T01:15:32.846Z,2.48
2019-02-03T01:16:32.775Z,2.5
2019-02-03T01:17:32.458Z,2.47
2019-02-03T01:18:32.721Z,2.49
2019-02-03T01:19:32.533Z,2.5
2019-02-03T01:20:34.268Z,2.48
2019-02-03T01:21:34.276Z,2.47
2019-02-03T01:22:32.620Z,2.45
2019-02-03T01:23:32.818Z,2.42
2019-02-03T01:24:32.635Z,2.44
2019-02-03T01:25:32.664Z,2.46
2019-02-03T01:26:32.391Z,2.37
2019-02-03T01:27:32.581Z,2.44
2019-02-03T01:28:33.914Z,2.4
2019-02-03T01:29:33.029Z,2.38
2019-02-03T01:30:32.627Z,2.37
2019-02-03T01:31:32.549Z,2.37
2019-02-03T01:32:32.437Z,2.35
2019-02-03T01:33:32.549Z,2.39
2019-02-03T01:34:32.751Z,2.36
2019-02-03T01:35:32.478Z,2.33
2019-02-03T01:36:33.762Z,2.36
2019-02-03T01:37:42.896Z,2.34
2019-02-03T01:38:32.536Z,2.37
2019-02-03T01:39:33.079Z,2.31
2019-02-03T01:40:32.607Z,2.29
2019-02-03T01:41:32.487Z,2.27
2019-02-03T01:42:32.517Z,2.25
2019-02-03T01:43:32.409Z,2.25
2019-02-03T01:44:33.923Z,2.27
2019-02-03T01:45:32.507Z,2.3
2019-02-03T01:46:32.411Z,2.31
2019-02-03T01:47:32.425Z,2.24
2019-02-03T01:48:32.463Z,2.22
2019-02-03T01:49:32.638Z,2.2
2019-02-03T01:50:32.460Z,2.24
2019-02-03T01:51:32.411Z,2.2
2019-02-03T01:52:33.275Z,2.2
2019-02-03T01:53:32.585Z,2.21
2019-02-03T01:54:32.435Z,2.2
2019-02-03T01:55:32.381Z,2.17
2019-02-03T01:56:32.414Z,2.15
2019-02-03T01:57:32.383Z,2.16
2019-02-03T01:58:32.332Z,2.16
2019-02-03T01:59:32.382Z,2.19
2019-02-03T02:00:32.390Z,2.2
2019-02-03T02:01:32.697Z,2.24
2019-02-03T02:02:32.350Z,2.15
2019-02-03T02:03:32.352Z,2.12
2019-02-03T02:04:32.405Z,2.13
2019-02-03T02:05:32.359Z,2.13
2019-02-03T02:06:32.388Z,2.08
2019-02-03T02:07:32.365Z,2.12
2019-02-03T02:08:32.356Z,2.07
2019-02-03T02:09:32.369Z,2.06
2019-02-03T02:10:32.359Z,2.09
2019-02-03T02:11:32.809Z,2.05
2019-02-03T02:12:32.440Z,2.02
2019-02-03T02:13:32.450Z,2.04
2019-02-03T02:14:32.562Z,2.03
2019-02-03T02:15:32.378Z,2.05
2019-02-03T02:16:32.384Z,2.04
2019-02-03T02:17:35.479Z,2.05
2019-02-03T02:18:32.620Z,2.04
2019-02-03T02:19:32.332Z,1.99
2019-02-03T02:20:32.640Z,2
2019-02-03T02:21:32.369Z,2.03
2019-02-03T02:22:32.681Z,2.01
2019-02-03T02:23:32.398Z,2.01
2019-02-03T02:24:33.817Z,2.02
2019-02-03T02:25:32.441Z,2.01
2019-02-03T02:26:33.103Z,1.98
2019-02-03T02:27:32.352Z,1.95
2019-02-03T02:28:32.316Z,1.97
2019-02-03T02:29:32.494Z,2.02
2019-02-03T02:30:32.649Z,1.96
2019-02-03T02:31:32.376Z,1.94
2019-02-03T02:32:34.162Z,1.93
2019-02-03T02:33:32.311Z,1.99
2019-02-03T02:34:32.658Z,1.95
2019-02-03T02:35:32.377Z,1.97
2019-02-03T02:36:32.726Z,2.02
2019-02-03T02:37:32.299Z,1.98
2019-02-03T02:38:32.261Z,1.96
2019-02-03T02:39:35.625Z,1.95
2019-02-03T02:40:32.425Z,1.91
2019-02-03T02:41:32.620Z,1.93
2019-02-03T02:42:32.346Z,1.9
2019-02-03T02:43:32.329Z,1.86
2019-02-03T02:44:32.431Z,1.87
2019-02-03T02:45:32.336Z,1.89
2019-02-03T02:46:32.630Z,1.89
2019-02-03T02:47:32.358Z,1.91
2019-02-03T02:48:32.392Z,1.82
2019-02-03T02:49:32.492Z,1.84
2019-02-03T02:50:32.314Z,1.86
2019-02-03T02:51:34.084Z,1.83
2019-02-03T02:52:32.399Z,1.77
2019-02-03T02:53:34.097Z,1.76
2019-02-03T02:54:32.392Z,1.76
2019-02-03T02:55:32.529Z,1.79
2019-02-03T02:56:32.793Z,1.8
2019-02-03T02:57:33.873Z,1.73
2019-02-03T02:58:32.336Z,1.73
2019-02-03T02:59:32.279Z,1.7
2019-02-03T03:00:34.091Z,1.75
2019-02-03T03:01:32.539Z,1.73
2019-02-03T03:02:32.302Z,1.75
2019-02-03T03:03:32.551Z,1.77
2019-02-03T03:04:32.329Z,1.76
2019-02-03T03:05:32.456Z,1.72
2019-02-03T03:06:32.583Z,1.71
2019-02-03T03:07:32.324Z,1.71
2019-02-03T03:08:32.272Z,1.66
2019-02-03T03:09:32.597Z,1.7
2019-02-03T03:10:32.586Z,1.69
2019-02-03T03:11:32.477Z,1.67
2019-02-03T03:12:32.899Z,1.67
2019-02-03T03:13:33.822Z,1.65
2019-02-03T03:14:32.271Z,1.64
2019-02-03T03:15:32.447Z,1.71
2019-02-03T03:16:32.491Z,1.72
2019-02-03T03:17:32.364Z,1.68
2019-02-03T03:18:32.320Z,1.65
2019-02-03T03:19:32.257Z,1.67
2019-02-03T03:20:32.345Z,1.66
2019-02-03T03:21:34.392Z,1.72
2019-02-03T03:22:32.270Z,1.67
2019-02-03T03:23:32.510Z,1.67
2019-02-03T03:24:32.364Z,1.68
2019-02-03T03:25:32.215Z,1.66
2019-02-03T03:26:32.264Z,1.68
2019-02-03T03:27:32.828Z,1.63
2019-02-03T03:28:32.294Z,1.62
2019-02-03T03:29:35.475Z,1.6
2019-02-03T03:30:32.427Z,1.66
2019-02-03T03:31:32.528Z,1.62
2019-02-03T03:32:32.374Z,1.62
2019-02-03T03:33:32.353Z,1.64
2019-02-03T03:34:32.232Z,1.62
2019-02-03T03:35:35.069Z,1.65
2019-02-03T03:36:32.239Z,1.66
2019-02-03T03:37:33.886Z,1.6
2019-02-03T03:38:32.910Z,1.68
2019-02-03T03:39:32.395Z,1.67
2019-02-03T03:40:32.199Z,1.66
2019-02-03T03:41:32.226Z,1.63
2019-02-03T03:42:32.291Z,1.6
2019-02-03T03:43:32.297Z,1.67
2019-02-03T03:44:32.288Z,1.63
2019-02-03T03:45:33.600Z,1.62
2019-02-03T03:46:32.567Z,1.67
2019-02-03T03:47:32.292Z,1.65
2019-02-03T03:48:32.269Z,1.64
2019-02-03T03:49:32.293Z,1.63
2019-02-03T03:50:32.238Z,1.6
2019-02-03T03:51:32.407Z,1.69
2019-02-03T03:52:32.189Z,1.68
2019-02-03T03:53:33.691Z,1.61
2019-02-03T03:54:32.605Z,1.59
2019-02-03T03:55:32.193Z,1.59
2019-02-03T03:56:32.358Z,1.63
2019-02-03T03:57:32.255Z,1.63
2019-02-03T03:58:32.160Z,1.62
2019-02-03T03:59:32.352Z,1.64
2019-02-03T04:00:32.331Z,1.64
2019-02-03T04:01:32.753Z,1.65
2019-02-03T04:02:32.323Z,1.65
2019-02-03T04:03:32.323Z,1.62
2019-02-03T04:04:32.656Z,1.59
2019-02-03T04:05:32.201Z,1.6
2019-02-03T04:06:32.349Z,1.57
2019-02-03T04:07:32.282Z,1.57
2019-02-03T04:08:45.978Z,1.52
2019-02-03T04:09:32.895Z,1.52
2019-02-03T04:10:32.157Z,1.53
2019-02-03T04:11:32.218Z,1.49
2019-02-03T04:12:32.242Z,1.47
2019-02-03T04:13:32.839Z,1.46
2019-02-03T04:14:32.276Z,1.46
2019-02-03T04:15:32.443Z,1.42
2019-02-03T04:16:32.533Z,1.41
2019-02-03T04:17:32.208Z,1.43
2019-02-03T04:18:32.265Z,1.42
2019-02-03T04:19:32.591Z,1.4
2019-02-03T04:20:32.783Z,1.4
2019-02-03T04:21:32.889Z,1.36
2019-02-03T04:22:32.194Z,1.41
2019-02-03T04:23:32.162Z,1.33
2019-02-03T04:24:32.173Z,1.36
2019-02-03T04:25:32.232Z,1.32
2019-02-03T04:26:32.195Z,1.33
2019-02-03T04:27:32.406Z,1.29
2019-02-03T04:28:32.151Z,1.26
2019-02-03T04:29:32.472Z,1.26
2019-02-03T04:30:32.413Z,1.3
2019-02-03T04:31:32.193Z,1.21
2019-02-03T04:32:32.486Z,1.21
2019-02-03T04:33:32.144Z,1.27
2019-02-03T04:34:32.155Z,1.22
2019-02-03T04:35:32.558Z,1.14
2019-02-03T04:36:32.356Z,1.14
2019-02-03T04:37:32.394Z,1.12
2019-02-03T04:38:32.157Z,1.1
2019-02-03T04:39:32.378Z,1.1
2019-02-03T04:40:32.211Z,1.05
2019-02-03T04:41:32.171Z,1.03
2019-02-03T04:42:33.617Z,1.05
2019-02-03T04:43:32.409Z,1.07
2019-02-03T04:44:32.405Z,1.07
2019-02-03T04:45:32.111Z,0.97
2019-02-03T04:46:32.866Z,0.92
2019-02-03T04:47:32.263Z,0.87
2019-02-03T04:48:32.967Z,0.87
2019-02-03T04:49:32.586Z,0.83
2019-02-03T04:50:36.646Z,0.84
2019-02-03T04:51:32.192Z,0.74
2019-02-03T04:52:32.117Z,0.79
2019-02-03T04:53:32.426Z,0.66
2019-02-03T04:54:32.506Z,0.64
2019-02-03T04:55:33.410Z,0.63
2019-02-03T04:56:33.900Z,0.56
2019-02-03T04:57:32.300Z,0.58
2019-02-03T04:58:33.123Z,0.48
2019-02-03T04:59:32.301Z,0.52
2019-02-03T05:00:32.459Z,0.56
2019-02-03T05:01:32.328Z,0.51
2019-02-03T05:02:32.546Z,0.46
2019-02-03T05:03:32.153Z,0.48
2019-02-03T05:04:32.082Z,0.5
2019-02-03T05:05:32.251Z,0.42
2019-02-03T05:06:33.579Z,0.44
2019-02-03T05:07:32.160Z,0.41
2019-02-03T05:08:32.092Z,0.42
2019-02-03T05:09:32.510Z,0.45
2019-02-03T05:10:32.103Z,0.4
2019-02-03T05:11:32.092Z,0.42
2019-02-03T05:12:32.158Z,0.39
2019-02-03T05:13:32.552Z,0.39
2019-02-03T05:14:33.793Z,0.38
2019-02-03T05:15:32.137Z,0.33
2019-02-03T05:16:32.152Z,0.33
2019-02-03T05:17:32.070Z,0.37
2019-02-03T05:18:32.306Z,0.38
2019-02-03T05:19:32.202Z,0.33
2019-02-03T05:20:32.371Z,0.27
2019-02-03T05:21:32.259Z,0.29
2019-02-03T05:22:33.484Z,0.36
2019-02-03T05:23:32.090Z,0.31
2019-02-03T05:24:32.384Z,0.3
2019-02-03T05:25:32.408Z,0.23
2019-02-03T05:26:32.140Z,0.28
2019-02-03T05:27:32.214Z,0.24
2019-02-03T05:28:32.064Z,0.26
2019-02-03T05:29:32.118Z,0.24
2019-02-03T05:30:33.641Z,0.2
2019-02-03T05:31:32.147Z,0.19
2019-02-03T05:32:32.201Z,0.19
2019-02-03T05:33:32.175Z,0.12
2019-02-03T05:34:32.350Z,0.15
2019-02-03T05:35:32.262Z,0.09
2019-02-03T05:36:32.118Z,0.17
2019-02-03T05:37:32.248Z,0.18
2019-02-03T05:38:33.494Z,0.18
2019-02-03T05:39:32.312Z,0.18
2019-02-03T05:40:32.164Z,0.12
2019-02-03T05:41:32.205Z,0.11
2019-02-03T05:42:32.091Z,0.11
2019-02-03T05:43:33.860Z,0.1
2019-02-03T05:44:32.157Z,0.06
2019-02-03T05:45:32.235Z,0.05
2019-02-03T05:46:33.549Z,0.04
2019-02-03T05:47:32.452Z,0.01
2019-02-03T05:48:32.140Z,0.04
2019-02-03T05:49:32.150Z,0.06
2019-02-03T05:50:32.457Z,0.01
2019-02-03T05:51:32.787Z,-0.03
2019-02-03T05:52:32.174Z,0.02
2019-02-03T05:53:32.144Z,0
2019-02-03T05:54:33.148Z,-0.02
2019-02-03T05:55:32.321Z,-0.01
2019-02-03T05:56:32.679Z,-0.08
2019-02-03T05:57:32.240Z,-0.06
2019-02-03T05:58:32.029Z,-0.06
2019-02-03T05:59:31.980Z,-0.15
2019-02-03T06:00:32.248Z,-0.2
2019-02-03T06:01:32.788Z,-0.19
2019-02-03T06:02:33.558Z,-0.2
2019-02-03T06:03:32.282Z,-0.17
2019-02-03T06:04:32.096Z,-0.2
2019-02-03T06:05:32.143Z,-0.18
2019-02-03T06:06:31.995Z,-0.13
2019-02-03T06:07:32.544Z,-0.12
2019-02-03T06:08:32.495Z,-0.15
2019-02-03T06:09:37.364Z,-0.18
2019-02-03T06:10:33.508Z,-0.19
2019-02-03T06:11:32.081Z,-0.21
2019-02-03T06:12:32.309Z,-0.21
2019-02-03T06:13:32.154Z,-0.16
2019-02-03T06:14:32.414Z,-0.28
2019-02-03T06:15:32.346Z,-0.27
2019-02-03T06:16:32.054Z,-0.29
2019-02-03T06:17:32.023Z,-0.29
2019-02-03T06:18:33.607Z,-0.25
2019-02-03T06:19:32.666Z,-0.31
2019-02-03T06:20:32.599Z,-0.32
2019-02-03T06:21:32.095Z,-0.36
2019-02-03T06:22:32.504Z,-0.28
2019-02-03T06:23:32.371Z,-0.33
2019-02-03T06:24:32.471Z,-0.36
2019-02-03T06:25:32.510Z,-0.27
2019-02-03T06:26:33.234Z,-0.27
2019-02-03T06:27:32.708Z,-0.28
2019-02-03T06:28:32.238Z,-0.34
2019-02-03T06:29:32.235Z,-0.4
2019-02-03T06:30:32.671Z,-0.35
2019-02-03T06:31:33.837Z,-0.4
2019-02-03T06:32:32.047Z,-0.42
2019-02-03T06:33:32.586Z,-0.41
2019-02-03T06:34:32.316Z,-0.38
2019-02-03T06:35:32.096Z,-0.37
2019-02-03T06:36:32.267Z,-0.38
2019-02-03T06:37:32.110Z,-0.4
2019-02-03T06:38:32.424Z,-0.38
2019-02-03T06:39:32.111Z,-0.39
2019-02-03T06:40:32.074Z,-0.38
2019-02-03T06:41:32.209Z,-0.44
2019-02-03T06:42:32.241Z,-0.41
2019-02-03T06:43:35.384Z,-0.47
2019-02-03T06:44:31.950Z,-0.46
2019-02-03T06:45:33.854Z,-0.41
2019-02-03T06:46:32.160Z,-0.45
2019-02-03T06:47:32.373Z,-0.44
2019-02-03T06:48:32.256Z,-0.43
2019-02-03T06:49:32.478Z,-0.45
2019-02-03T06:50:32.316Z,-0.49
2019-02-03T06:51:34.101Z,-0.5
2019-02-03T06:52:32.057Z,-0.47
2019-02-03T06:53:32.281Z,-0.5
2019-02-03T06:54:32.370Z,-0.52
2019-02-03T06:55:32.120Z,-0.56
2019-02-03T06:56:31.993Z,-0.55
2019-02-03T06:57:32.290Z,-0.53
2019-02-03T06:58:32.486Z,-0.51
2019-02-03T06:59:34.057Z,-0.51
2019-02-03T07:00:32.317Z,-0.54
2019-02-03T07:01:32.125Z,-0.52
2019-02-03T07:02:32.186Z,-0.47
2019-02-03T07:03:32.157Z,-0.52
2019-02-03T07:04:32.186Z,-0.51
2019-02-03T07:05:31.981Z,-0.53
2019-02-03T07:06:32.474Z,-0.53
2019-02-03T07:07:33.716Z,-0.51
2019-02-03T07:08:32.183Z,-0.56
2019-02-03T07:09:32.067Z,-0.54
2019-02-03T07:10:31.932Z,-0.6
2019-02-03T07:11:31.958Z,-0.61
2019-02-03T07:12:32.122Z,-0.53
2019-02-03T07:13:31.963Z,-0.54
2019-02-03T07:14:31.888Z,-0.54
2019-02-03T07:15:32.929Z,-0.55
2019-02-03T07:16:45.523Z,-0.63
2019-02-03T07:17:32.245Z,-0.67
2019-02-03T07:18:32.010Z,-0.68
2019-02-03T07:19:32.354Z,-0.65
2019-02-03T07:20:32.092Z,-0.68
2019-02-03T07:21:32.179Z,-0.75
2019-02-03T07:22:32.366Z,-0.78
2019-02-03T07:23:33.807Z,-0.76
2019-02-03T07:24:32.018Z,-0.75
2019-02-03T07:25:32.079Z,-0.81
2019-02-03T07:26:31.899Z,-0.9
2019-02-03T07:27:31.950Z,-0.83
2019-02-03T07:28:32.105Z,-0.83
2019-02-03T07:29:32.457Z,-0.86
2019-02-03T07:30:32.011Z,-0.79
2019-02-03T07:31:33.144Z,-0.87
2019-02-03T07:32:32.129Z,-1
2019-02-03T07:33:31.807Z,-0.88
2019-02-03T07:34:32.438Z,-0.88
2019-02-03T07:35:31.852Z,-0.94
2019-02-03T07:36:32.259Z,-0.95
2019-02-03T07:37:31.988Z,-1.05
2019-02-03T07:38:32.181Z,-1.02
2019-02-03T07:39:33.710Z,-1.02
2019-02-03T07:40:32.185Z,-1.04
2019-02-03T07:41:31.836Z,-1.02
2019-02-03T07:42:32.112Z,-1.01
2019-02-03T07:43:32.100Z,-1.08
2019-02-03T07:44:33.157Z,-1.05
2019-02-03T07:45:31.947Z,-1.08
2019-02-03T07:46:32.337Z,-1.06
2019-02-03T07:47:33.754Z,-1.04
2019-02-03T07:48:34.094Z,-1.04
2019-02-03T07:49:32.437Z,-1.06
2019-02-03T07:50:32.371Z,-1.02
2019-02-03T07:51:32.254Z,-0.98
2019-02-03T07:52:31.854Z,-1.03
2019-02-03T07:53:32.185Z,-0.99
2019-02-03T07:54:31.989Z,-1.15
2019-02-03T07:55:33.306Z,-1.03
2019-02-03T07:56:31.791Z,-1.04
2019-02-03T07:57:32.149Z,-1.13
2019-02-03T07:58:31.854Z,-1.1
2019-02-03T07:59:32.411Z,-1.12
2019-02-03T08:00:32.028Z,-1.12
2019-02-03T08:01:31.929Z,-1.09
2019-02-03T08:02:32.731Z,-1.05
2019-02-03T08:03:32.950Z,-1.09
2019-02-03T08:04:32.468Z,-1.04
2019-02-03T08:05:32.481Z,-1.05
2019-02-03T08:06:32.156Z,-1.16
2019-02-03T08:07:32.052Z,-1.07
2019-02-03T08:08:31.893Z,-1.17
2019-02-03T08:09:32.602Z,-1.09
2019-02-03T08:10:31.897Z,-1.15
2019-02-03T08:11:33.316Z,-1.05
2019-02-03T08:12:32.118Z,-1.1
2019-02-03T08:13:32.119Z,-1.05
2019-02-03T08:14:32.226Z,-1.03
2019-02-03T08:15:33.513Z,-1.08
2019-02-03T08:16:32.213Z,-1.02
2019-02-03T08:17:31.776Z,-1.05
2019-02-03T08:18:32.048Z,-1.1
2019-02-03T08:19:33.675Z,-1.05
2019-02-03T08:20:31.754Z,-1.01
2019-02-03T08:21:32.184Z,-1
2019-02-03T08:22:31.833Z,-0.96
2019-02-03T08:23:31.974Z,-0.97
2019-02-03T08:24:31.850Z,-1.01
2019-02-03T08:25:31.747Z,-1.03
2019-02-03T08:26:31.876Z,-1
2019-02-03T08:27:31.817Z,-0.99
2019-02-03T08:28:32.723Z,-0.98
2019-02-03T08:29:31.979Z,-0.97
2019-02-03T08:30:31.775Z,-0.88
2019-02-03T08:31:31.772Z,-0.83
2019-02-03T08:32:32.019Z,-0.84
2019-02-03T08:33:33.595Z,-0.78
2019-02-03T08:34:31.797Z,-0.81
2019-02-03T08:35:34.435Z,-0.76
2019-02-03T08:36:32.632Z,-0.74
2019-02-03T08:37:31.786Z,-0.71
2019-02-03T08:38:31.867Z,-0.67
2019-02-03T08:39:32.065Z,-0.66
2019-02-03T08:40:37.950Z,-0.64
2019-02-03T08:41:31.743Z,-0.59
2019-02-03T08:42:35.844Z,-0.64
2019-02-03T08:43:32.023Z,-0.62
2019-02-03T08:44:32.180Z,-0.61
2019-02-03T08:45:32.097Z,-0.58
2019-02-03T08:46:31.767Z,-0.54
2019-02-03T08:47:32.352Z,-0.49
2019-02-03T08:48:31.778Z,-0.52
2019-02-03T08:49:32.329Z,-0.54
2019-02-03T08:50:32.701Z,-0.5
2019-02-03T08:51:32.697Z,-0.46
2019-02-03T08:52:32.172Z,-0.45
2019-02-03T08:53:31.759Z,-0.39
2019-02-03T08:54:31.751Z,-0.41
2019-02-03T08:55:31.748Z,-0.39
2019-02-03T08:56:31.850Z,-0.37
2019-02-03T08:57:39.477Z,-0.39
2019-02-03T08:58:33.083Z,-0.33
2019-02-03T08:59:36.308Z,-0.31
2019-02-03T09:00:31.965Z,-0.31
2019-02-03T09:01:31.793Z,-0.31
2019-02-03T09:02:32.951Z,-0.3
2019-02-03T09:03:31.979Z,-0.35
2019-02-03T09:04:31.732Z,-0.34
2019-02-03T09:05:31.862Z,-0.29
2019-02-03T09:06:31.787Z,-0.24
2019-02-03T09:07:33.209Z,-0.28
2019-02-03T09:08:32.285Z,-0.27
2019-02-03T09:09:31.741Z,-0.26
2019-02-03T09:10:31.784Z,-0.22
2019-02-03T09:11:31.814Z,-0.23
2019-02-03T09:12:33.439Z,-0.3
2019-02-03T09:13:32.343Z,-0.27
2019-02-03T09:14:31.715Z,-0.3
2019-02-03T09:15:32.098Z,-0.37
2019-02-03T09:16:32.100Z,-0.36
2019-02-03T09:17:32.163Z,-0.41
2019-02-03T09:18:31.689Z,-0.36
2019-02-03T09:19:31.976Z,-0.39
2019-02-03T09:20:31.796Z,-0.3
2019-02-03T09:21:31.786Z,-0.4
2019-02-03T09:22:31.851Z,-0.37
2019-02-03T09:23:31.746Z,-0.45
2019-02-03T09:24:31.818Z,-0.39
2019-02-03T09:25:31.673Z,-0.42
2019-02-03T09:26:32.700Z,-0.46
2019-02-03T09:27:32.219Z,-0.57
2019-02-03T09:28:31.818Z,-0.47
2019-02-03T09:29:33.230Z,-0.4
2019-02-03T09:30:32.305Z,-0.47
2019-02-03T09:31:32.845Z,-0.62
2019-02-03T09:32:33.794Z,-0.63
2019-02-03T09:33:32.023Z,-0.55
2019-02-03T09:34:32.351Z,-0.59
2019-02-03T09:35:32.590Z,-0.54
2019-02-03T09:36:31.662Z,-0.54
2019-02-03T09:37:31.680Z,-0.67
2019-02-03T09:38:31.812Z,-0.6
2019-02-03T09:39:31.819Z,-0.59
2019-02-03T09:40:31.838Z,-0.58
2019-02-03T09:41:31.954Z,-0.53
2019-02-03T09:42:32.124Z,-0.64
2019-02-03T09:43:31.987Z,-0.57
2019-02-03T09:45:32.097Z,-0.63
2019-02-03T09:46:35.051Z,-0.58
2019-02-03T09:47:31.715Z,-0.57
2019-02-03T09:48:31.652Z,-0.56
2019-02-03T09:49:31.644Z,-0.54
2019-02-03T09:50:32.106Z,-0.62
2019-02-03T09:51:31.903Z,-0.61
2019-02-03T09:52:31.989Z,-0.54
2019-02-03T09:53:31.979Z,-0.57
2019-02-03T09:54:31.738Z,-0.66
2019-02-03T09:55:32.060Z,-0.63
2019-02-03T09:56:31.835Z,-0.59
2019-02-03T09:57:31.682Z,-0.56
2019-02-03T09:58:32.635Z,-0.54
2019-02-03T09:59:31.697Z,-0.57
2019-02-03T10:00:31.993Z,-0.54
2019-02-03T10:01:33.724Z,-0.5
2019-02-03T10:02:32.856Z,-0.49
2019-02-03T10:03:31.656Z,-0.53
2019-02-03T10:04:31.609Z,-0.53
2019-02-03T10:05:31.700Z,-0.48
2019-02-03T10:06:31.778Z,-0.46
2019-02-03T10:07:32.392Z,-0.51
2019-02-03T10:08:41.234Z,-0.49
2019-02-03T10:09:33.602Z,-0.46
2019-02-03T10:10:32.618Z,-0.46
2019-02-03T10:11:33.724Z,-0.36
2019-02-03T10:12:31.652Z,-0.41
2019-02-03T10:13:33.012Z,-0.38
2019-02-03T10:14:34.178Z,-0.52
2019-02-03T10:15:32.685Z,-0.5
2019-02-03T10:16:31.761Z,-0.48
2019-02-03T10:17:32.045Z,-0.49
2019-02-03T10:18:32.255Z,-0.47
2019-02-03T10:19:31.618Z,-0.33
2019-02-03T10:20:31.578Z,-0.48
2019-02-03T10:21:32.387Z,-0.51
2019-02-03T10:22:31.595Z,-0.54
2019-02-03T10:23:31.886Z,-0.59
2019-02-03T10:24:42.734Z,-0.45
2019-02-03T10:25:31.655Z,-0.43
2019-02-03T10:26:31.664Z,-0.59
2019-02-03T10:27:31.598Z,-0.62
2019-02-03T10:28:31.886Z,-0.52
2019-02-03T10:29:31.678Z,-0.56
2019-02-03T10:30:31.570Z,-0.54
2019-02-03T10:31:31.839Z,-0.53
2019-02-03T10:32:31.602Z,-0.5
2019-02-03T10:33:31.688Z,-0.46
2019-02-03T10:34:31.712Z,-0.4
2019-02-03T10:35:31.580Z,-0.47
2019-02-03T10:36:31.764Z,-0.6
2019-02-03T10:37:31.691Z,-0.49
2019-02-03T10:38:31.580Z,-0.52
2019-02-03T10:39:33.376Z,-0.57
2019-02-03T10:40:32.075Z,-0.53
2019-02-03T10:41:31.673Z,-0.59
2019-02-03T10:42:31.803Z,-0.54
2019-02-03T10:43:31.813Z,-0.54
2019-02-03T10:44:31.619Z,-0.53
2019-02-03T10:45:33.398Z,-0.5
2019-02-03T10:46:31.789Z,-0.57
2019-02-03T10:47:31.592Z,-0.56
2019-02-03T10:48:31.819Z,-0.62
2019-02-03T10:49:31.804Z,-0.69
2019-02-03T10:50:33.353Z,-0.66
2019-02-03T10:51:31.671Z,-0.69
2019-02-03T10:52:31.585Z,-0.74
2019-02-03T10:53:31.551Z,-0.74
2019-02-03T10:54:31.897Z,-0.71
2019-02-03T10:55:31.539Z,-0.66
2019-02-03T10:56:31.697Z,-0.81
2019-02-03T10:57:31.555Z,-0.71
2019-02-03T10:58:33.001Z,-0.72
2019-02-03T10:59:31.743Z,-0.65
2019-02-03T11:00:31.700Z,-0.71
2019-02-03T11:01:31.766Z,-0.68
2019-02-03T11:02:31.842Z,-0.61
2019-02-03T11:03:31.695Z,-0.6
2019-02-03T11:04:31.662Z,-0.6
2019-02-03T11:05:31.621Z,-0.64
2019-02-03T11:06:31.669Z,-0.73
2019-02-03T11:07:31.700Z,-0.8
2019-02-03T11:08:32.226Z,-0.82
2019-02-03T11:09:31.897Z,-0.89
2019-02-03T11:10:32.224Z,-0.9
2019-02-03T11:11:37.216Z,-0.92
2019-02-03T11:12:31.741Z,-0.84
2019-02-03T11:13:32.666Z,-0.86
2019-02-03T11:14:31.571Z,-0.9
2019-02-03T11:15:31.740Z,-0.94
2019-02-03T11:16:31.534Z,-0.91
2019-02-03T11:17:32.411Z,-0.87
2019-02-03T11:18:31.524Z,-0.9
2019-02-03T11:19:31.683Z,-0.9
2019-02-03T11:20:31.638Z,-0.91
2019-02-03T11:21:33.878Z,-0.89
2019-02-03T11:22:31.595Z,-0.86
2019-02-03T11:23:32.149Z,-0.75
2019-02-03T11:24:31.674Z,-0.68
2019-02-03T11:25:32.255Z,-0.72
2019-02-03T11:26:31.718Z,-0.8
2019-02-03T11:27:31.694Z,-0.81
2019-02-03T11:28:32.977Z,-0.9
2019-02-03T11:29:31.733Z,-0.83
2019-02-03T11:30:31.860Z,-0.74
2019-02-03T11:31:31.741Z,-0.79
2019-02-03T11:32:31.670Z,-0.76
2019-02-03T11:33:31.720Z,-0.69
2019-02-03T11:34:31.719Z,-0.66
2019-02-03T11:35:31.523Z,-0.79
2019-02-03T11:36:33.464Z,-0.74
2019-02-03T11:37:31.584Z,-0.83
2019-02-03T11:38:32.037Z,-0.8
2019-02-03T11:39:32.199Z,-0.84
2019-02-03T11:40:31.613Z,-0.82
2019-02-03T11:41:31.553Z,-0.76
2019-02-03T11:42:31.846Z,-0.79
2019-02-03T11:43:31.507Z,-0.72
2019-02-03T11:44:31.762Z,-0.7
2019-02-03T11:45:31.856Z,-0.74
2019-02-03T11:46:31.631Z,-0.66
2019-02-03T11:47:31.512Z,-0.63
2019-02-03T11:48:31.584Z,-0.65
2019-02-03T11:49:32.170Z,-0.59
2019-02-03T11:50:32.191Z,-0.68
2019-02-03T11:51:31.573Z,-0.72
2019-02-03T11:52:31.568Z,-0.67
2019-02-03T11:53:31.863Z,-0.64
2019-02-03T11:54:31.766Z,-0.61
2019-02-03T11:55:31.585Z,-0.54
2019-02-03T11:56:31.487Z,-0.55
2019-02-03T11:57:31.675Z,-0.49
2019-02-03T11:58:31.489Z,-0.48
2019-02-03T11:59:31.905Z,-0.45
2019-02-03T12:00:32.052Z,-0.46
2019-02-03T12:01:31.606Z,-0.52
2019-02-03T12:02:42.587Z,-0.61
2019-02-03T12:03:32.324Z,-0.5
2019-02-03T12:04:31.613Z,-0.43
2019-02-03T12:05:31.820Z,-0.42
2019-02-03T12:06:32.154Z,-0.46
2019-02-03T12:07:31.445Z,-0.51
2019-02-03T12:08:32.864Z,-0.64
2019-02-03T12:09:31.899Z,-0.5
2019-02-03T12:10:31.778Z,-0.5
2019-02-03T12:11:31.791Z,-0.48
2019-02-03T12:12:31.769Z,-0.56
2019-02-03T12:13:31.438Z,-0.56
2019-02-03T12:14:31.470Z,-0.5
2019-02-03T12:15:32.401Z,-0.44
2019-02-03T12:16:32.818Z,-0.38
2019-02-03T12:17:31.551Z,-0.4
2019-02-03T12:18:32.559Z,-0.47
2019-02-03T12:19:31.636Z,-0.58
2019-02-03T12:20:31.773Z,-0.51
2019-02-03T12:21:31.469Z,-0.41
2019-02-03T12:22:31.469Z,-0.42
2019-02-03T12:23:31.411Z,-0.33
2019-02-03T12:24:32.565Z,-0.34
2019-02-03T12:25:31.523Z,-0.45
2019-02-03T12:26:31.430Z,-0.45
2019-02-03T12:27:31.695Z,-0.38
2019-02-03T12:28:31.443Z,-0.28
2019-02-03T12:29:31.481Z,-0.32
2019-02-03T12:30:31.449Z,-0.5
2019-02-03T12:31:31.433Z,-0.43
2019-02-03T12:32:31.557Z,-0.38
2019-02-03T12:33:31.418Z,-0.36
2019-02-03T12:34:31.409Z,-0.33
2019-02-03T12:35:31.437Z,-0.32
2019-02-03T12:36:31.418Z,-0.35
2019-02-03T12:37:31.442Z,-0.36
2019-02-03T12:38:31.422Z,-0.34
2019-02-03T12:39:31.440Z,-0.24
2019-02-03T12:40:31.641Z,-0.26
2019-02-03T12:41:32.991Z,-0.28
2019-02-03T12:42:31.455Z,-0.32
2019-02-03T12:43:33.356Z,-0.27
2019-02-03T12:44:32.417Z,-0.35
2019-02-03T12:45:31.402Z,-0.31
2019-02-03T12:46:31.620Z,-0.3
2019-02-03T12:47:31.486Z,-0.28
2019-02-03T12:48:31.462Z,-0.3
2019-02-03T12:49:32.536Z,-0.21
2019-02-03T12:50:31.954Z,-0.2
2019-02-03T12:51:31.881Z,-0.24
2019-02-03T12:52:31.584Z,-0.17
2019-02-03T12:53:32.415Z,-0.09
2019-02-03T12:54:31.654Z,-0.16
2019-02-03T12:55:32.533Z,-0.14
2019-02-03T12:56:31.659Z,-0.18
2019-02-03T12:57:31.973Z,-0.15
2019-02-03T12:58:31.956Z,-0.15
2019-02-03T12:59:32.328Z,-0.11
2019-02-03T13:00:31.634Z,-0.21
2019-02-03T13:01:32.274Z,-0.11
2019-02-03T13:02:31.558Z,-0.09
2019-02-03T13:03:33.250Z,-0.2
2019-02-03T13:04:32.971Z,-0.16
2019-02-03T13:05:31.641Z,-0.16
2019-02-03T13:06:31.491Z,-0.14
2019-02-03T13:07:31.941Z,-0.19
2019-02-03T13:08:31.691Z,-0.17